createdAt,value
2018-04-17T00:02:05.415Z,12.30
2018-04-17T00:04:32.892Z,12.30
2018-04-17T00:07:01.128Z,12.30
2018-04-17T00:09:28.601Z,12.20
2018-04-17T00:11:56.069Z,12.20
2018-04-17T00:14:23.522Z,12.20
2018-04-17T00:16:50.979Z,12.20
2018-04-17T00:19:18.449Z,12.20
2018-04-17T00:21:45.889Z,12.20
2018-04-17T00:24:13.354Z,12.20
2018-04-17T00:26:40.832Z,12.20
2018-04-17T00:29:08.301Z,12.00
2018-04-17T00:31:36.543Z,11.80
2018-04-17T00:34:03.997Z,11.80
2018-04-17T00:36:31.481Z,11.70
2018-04-17T00:38:59.721Z,11.60
2018-04-17T00:41:27.170Z,11.60
2018-04-17T00:43:54.889Z,11.70
2018-04-17T00:46:23.117Z,11.80
2018-04-17T00:48:50.585Z,11.80
2018-04-17T00:51:18.023Z,11.70
2018-04-17T00:53:52.234Z,11.70
2018-04-17T00:56:19.703Z,11.70
2018-04-17T00:58:47.177Z,11.80
2018-04-17T01:01:14.636Z,11.70
2018-04-17T01:03:42.088Z,11.50
2018-04-17T01:06:09.546Z,11.60
2018-04-17T01:08:37.033Z,11.50
2018-04-17T01:11:05.268Z,11.40
2018-04-17T01:13:32.728Z,11.30
2018-04-17T01:16:00.205Z,11.30
2018-04-17T01:18:27.668Z,11.30
2018-04-17T01:20:55.132Z,11.20
2018-04-17T01:23:23.385Z,11.00
2018-04-17T01:25:50.821Z,11.00
2018-04-17T01:28:18.290Z,10.90
2018-04-17T01:30:45.757Z,11.00
2018-04-17T01:33:13.242Z,10.90
2018-04-17T01:35:41.465Z,11.00
2018-04-17T01:38:08.932Z,11.00
2018-04-17T01:40:36.395Z,11.10
2018-04-17T01:43:03.843Z,11.10
2018-04-17T01:45:31.309Z,11.00
2018-04-17T01:47:58.765Z,10.80
2018-04-17T01:50:26.214Z,10.80
2018-04-17T01:52:53.712Z,10.80
2018-04-17T01:55:21.965Z,10.80
2018-04-17T01:57:49.432Z,10.70
2018-04-17T02:00:16.871Z,10.90
2018-04-17T02:02:45.222Z,10.90
2018-04-17T02:05:12.700Z,11.00
2018-04-17T02:07:40.917Z,11.20
2018-04-17T02:10:09.126Z,11.20
2018-04-17T02:12:36.589Z,11.10
2018-04-17T02:15:04.798Z,11.00
2018-04-17T02:17:32.237Z,10.90
2018-04-17T02:19:59.688Z,10.90
2018-04-17T02:22:27.151Z,10.90
2018-04-17T02:24:54.608Z,10.70
2018-04-17T02:27:22.041Z,10.60
2018-04-17T02:29:49.526Z,10.60
2018-04-17T02:32:16.969Z,10.50
2018-04-17T02:34:44.408Z,10.60
2018-04-17T02:37:11.879Z,10.50
2018-04-17T02:39:39.335Z,10.60
2018-04-17T02:42:06.789Z,10.60
2018-04-17T02:44:35.021Z,10.70
2018-04-17T02:47:03.235Z,10.70
2018-04-17T02:49:30.705Z,10.60
2018-04-17T02:51:58.181Z,10.70
2018-04-17T02:54:25.639Z,10.80
2018-04-17T02:56:53.088Z,10.80
2018-04-17T02:59:20.584Z,10.60
2018-04-17T03:01:48.029Z,10.50
2018-04-17T03:04:16.260Z,10.20
2018-04-17T03:06:43.714Z,10.20
2018-04-17T03:09:11.162Z,10.20
2018-04-17T03:11:38.627Z,10.20
2018-04-17T03:14:06.077Z,10.20
2018-04-17T03:16:33.571Z,10.20
2018-04-17T03:19:01.044Z,10.20
2018-04-17T03:21:29.292Z,10.20
2018-04-17T03:23:59.191Z,10.20
2018-04-17T03:26:26.644Z,10.20
2018-04-17T03:28:54.100Z,10.10
2018-04-17T03:31:22.403Z,10.00
2018-04-17T03:33:49.851Z,10.00
2018-04-17T03:36:17.308Z,9.90
2018-04-17T03:38:44.786Z,9.90
2018-04-17T03:41:13.027Z,9.70
2018-04-17T03:43:40.487Z,9.70
2018-04-17T03:46:07.931Z,9.80
2018-04-17T03:48:35.394Z,9.60
2018-04-17T03:51:02.857Z,9.60
2018-04-17T03:53:30.331Z,9.40
2018-04-17T03:55:57.888Z,9.30
2018-04-17T03:58:25.369Z,9.30
2018-04-17T04:00:53.607Z,9.30
2018-04-17T04:03:21.079Z,9.30
2018-04-17T04:05:48.617Z,9.30
2018-04-17T04:08:16.161Z,9.20
2018-04-17T04:10:43.619Z,9.00
2018-04-17T04:13:11.093Z,9.10
2018-04-17T04:15:38.549Z,9.10
2018-04-17T04:18:17.855Z,9.20
2018-04-17T04:20:57.404Z,9.20
2018-04-17T04:23:36.884Z,9.20
2018-04-17T04:26:16.275Z,9.30
2018-04-17T04:28:43.723Z,9.10
2018-04-17T04:31:11.185Z,9.10
2018-04-17T04:33:38.733Z,9.20
2018-04-17T04:36:06.245Z,9.20
2018-04-17T04:38:33.775Z,9.20
2018-04-17T04:41:01.267Z,9.20
2018-04-17T04:43:28.735Z,9.20
2018-04-17T04:45:56.958Z,9.40
2018-04-17T04:48:24.426Z,9.40
2018-04-17T04:50:51.886Z,9.30
2018-04-17T04:53:19.345Z,9.20
2018-04-17T04:55:46.903Z,9.30
2018-04-17T04:58:14.359Z,9.20
2018-04-17T05:00:41.835Z,9.10
2018-04-17T05:03:09.291Z,9.10
2018-04-17T05:05:36.797Z,9.10
2018-04-17T05:08:04.238Z,9.20
2018-04-17T05:10:31.763Z,9.20
2018-04-17T05:12:59.323Z,9.30
2018-04-17T05:15:26.762Z,9.20
2018-04-17T05:17:54.240Z,9.20
2018-04-17T05:20:21.703Z,9.30
2018-04-17T05:22:49.157Z,9.30
2018-04-17T05:25:16.712Z,9.40
2018-04-17T05:27:44.219Z,9.50
2018-04-17T05:30:11.736Z,9.40
2018-04-17T05:32:39.977Z,9.40
2018-04-17T05:35:07.435Z,9.40
2018-04-17T05:37:34.874Z,9.40
2018-04-17T05:40:02.339Z,9.40
2018-04-17T05:42:29.785Z,9.60
2018-04-17T05:44:57.250Z,9.60
2018-04-17T05:47:24.684Z,9.70
2018-04-17T05:49:52.163Z,9.70
2018-04-17T05:52:19.690Z,9.80
2018-04-17T05:54:47.131Z,9.80
2018-04-17T05:57:15.407Z,10.00
2018-04-17T05:59:43.627Z,10.10
2018-04-17T06:02:11.110Z,10.10
2018-04-17T06:04:38.552Z,10.30
2018-04-17T06:07:06.016Z,10.40
2018-04-17T06:09:33.506Z,10.30
2018-04-17T06:12:01.744Z,10.50
2018-04-17T06:14:29.512Z,10.50
2018-04-17T06:16:57.466Z,10.60
2018-04-17T06:19:27.297Z,10.70
2018-04-17T06:21:54.784Z,10.90
2018-04-17T06:24:23.028Z,11.40
2018-04-17T06:26:50.498Z,11.30
2018-04-17T06:29:17.935Z,11.60
2018-04-17T06:31:45.495Z,11.80
2018-04-17T06:34:12.955Z,12.10
2018-04-17T06:36:40.420Z,12.20
2018-04-17T06:39:07.878Z,12.40
2018-04-17T06:41:36.149Z,13.00
2018-04-17T06:44:03.608Z,13.00
2018-04-17T06:46:31.085Z,13.20
2018-04-17T06:48:59.360Z,13.60
2018-04-17T06:51:27.587Z,13.90
2018-04-17T06:53:55.048Z,13.80
2018-04-17T06:56:22.492Z,14.30
2018-04-17T06:58:49.977Z,14.40
2018-04-17T07:01:17.447Z,14.50
2018-04-17T07:03:44.924Z,15.00
2018-04-17T07:06:13.189Z,15.30
2018-04-17T07:08:40.657Z,15.30
2018-04-17T07:11:08.095Z,15.20
2018-04-17T07:13:35.601Z,15.30
2018-04-17T07:16:03.076Z,15.80
2018-04-17T07:18:30.542Z,15.90
2018-04-17T07:20:58.011Z,16.00
2018-04-17T07:23:28.151Z,16.20
2018-04-17T07:25:55.801Z,16.60
2018-04-17T07:28:23.452Z,17.00
2018-04-17T07:30:50.922Z,17.10
2018-04-17T07:33:18.390Z,17.40
2018-04-17T07:35:45.841Z,17.50
2018-04-17T07:38:13.306Z,17.80
2018-04-17T07:40:41.532Z,18.50
2018-04-17T07:43:08.988Z,18.40
2018-04-17T07:45:36.427Z,18.50
2018-04-17T07:48:22.702Z,18.80
2018-04-17T07:50:50.911Z,19.70
2018-04-17T07:53:18.374Z,19.60
2018-04-17T07:55:45.851Z,19.90
2018-04-17T07:58:13.316Z,20.40
2018-04-17T08:00:40.767Z,20.70
2018-04-17T08:03:08.213Z,20.90
2018-04-17T08:05:36.553Z,21.10
2018-04-17T08:08:04.006Z,21.40
2018-04-17T08:10:31.581Z,21.30
2018-04-17T08:12:59.029Z,21.60
2018-04-17T08:15:26.488Z,21.80
2018-04-17T08:17:53.942Z,22.40
2018-04-17T08:20:21.420Z,22.70
2018-04-17T08:22:48.888Z,22.80
2018-04-17T08:25:16.359Z,23.10
2018-04-17T08:27:43.816Z,23.00
2018-04-17T08:30:11.268Z,23.50
2018-04-17T08:32:38.751Z,24.10
2018-04-17T08:35:06.955Z,24.70
2018-04-17T08:37:34.436Z,24.60
2018-04-17T08:40:01.899Z,25.20
2018-04-17T08:42:29.364Z,24.90
2018-04-17T08:44:56.813Z,25.50
2018-04-17T08:47:24.289Z,26.00
2018-04-17T08:49:51.742Z,25.80
2018-04-17T08:52:19.233Z,25.40
2018-04-17T08:54:47.453Z,25.90
2018-04-17T08:57:14.926Z,25.80
2018-04-17T08:59:42.505Z,25.80
2018-04-17T09:02:09.968Z,25.80
2018-04-17T09:04:38.376Z,26.30
2018-04-17T09:07:05.825Z,27.10
2018-04-17T09:09:34.048Z,28.30
2018-04-17T09:12:01.531Z,28.20
2018-04-17T09:14:28.955Z,28.10
2018-04-17T09:16:56.425Z,28.10
2018-04-17T09:19:23.892Z,27.90
2018-04-17T09:21:51.376Z,28.20
2018-04-17T09:24:19.581Z,28.20
2018-04-17T09:26:47.035Z,28.20
2018-04-17T09:29:14.475Z,28.50
2018-04-17T09:31:41.931Z,28.30
2018-04-17T09:34:09.403Z,28.50
2018-04-17T09:36:36.850Z,28.20
2018-04-17T09:39:07.169Z,29.10
2018-04-17T09:41:34.621Z,29.80
2018-04-17T09:44:02.095Z,29.70
2018-04-17T09:46:29.558Z,29.60
2018-04-17T09:48:57.003Z,29.10
2018-04-17T09:51:24.451Z,29.60
2018-04-17T09:53:51.904Z,29.00
2018-04-17T09:56:19.404Z,29.40
2018-04-17T09:58:46.854Z,29.60
2018-04-17T10:01:20.019Z,29.70
2018-04-17T10:03:48.622Z,29.80
2018-04-17T10:06:16.308Z,30.40
2018-04-17T10:11:34.241Z,30.40
2018-04-17T10:14:01.746Z,31.30
2018-04-17T10:19:20.913Z,32.10
2018-04-17T10:21:48.356Z,32.10
2018-04-17T10:24:15.803Z,31.40
2018-04-17T10:26:43.255Z,31.50
2018-04-17T10:29:10.731Z,31.10
2018-04-17T10:31:38.173Z,31.40
2018-04-17T10:34:05.630Z,30.70
2018-04-17T10:36:33.079Z,30.90
2018-04-17T10:39:01.300Z,31.00
2018-04-17T10:41:29.552Z,32.20
2018-04-17T10:43:56.999Z,32.20
2018-04-17T10:46:25.284Z,32.70
2018-04-17T10:48:52.697Z,32.70
2018-04-17T10:51:20.146Z,32.70
2018-04-17T10:53:47.612Z,33.00
2018-04-17T10:56:15.059Z,32.10
2018-04-17T10:58:43.432Z,31.70
2018-04-17T11:01:11.672Z,31.40
2018-04-17T11:03:39.155Z,31.30
2018-04-17T11:06:07.398Z,32.60
2018-04-17T11:08:34.845Z,32.60
2018-04-17T11:11:02.324Z,31.30
2018-04-17T11:13:29.807Z,31.30
2018-04-17T11:15:58.037Z,31.90
2018-04-17T11:18:25.491Z,31.80
2018-04-17T11:20:52.937Z,31.70
2018-04-17T11:23:20.416Z,32.20
2018-04-17T11:25:47.859Z,31.20
2018-04-17T11:28:15.350Z,32.10
2018-04-17T11:30:43.580Z,31.00
2018-04-17T11:33:11.026Z,31.00
2018-04-17T11:35:38.489Z,32.60
2018-04-17T11:38:06.763Z,32.60
2018-04-17T11:40:34.244Z,32.50
2018-04-17T11:43:01.765Z,31.80
2018-04-17T11:45:29.203Z,31.40
2018-04-17T11:47:56.668Z,32.00
2018-04-17T11:50:28.579Z,31.80
2018-04-17T11:52:56.065Z,31.80
2018-04-17T11:55:24.298Z,31.40
2018-04-17T11:57:51.758Z,31.40
2018-04-17T12:00:19.216Z,31.30
2018-04-17T12:02:46.673Z,31.40
2018-04-17T12:05:14.150Z,32.20
2018-04-17T12:07:41.614Z,32.40
2018-04-17T12:10:09.077Z,31.40
2018-04-17T12:12:37.335Z,33.60
2018-04-17T12:15:04.795Z,33.50
2018-04-17T12:17:32.495Z,33.90
2018-04-17T12:20:00.406Z,33.80
2018-04-17T12:22:27.980Z,33.70
2018-04-17T12:24:55.586Z,32.50
2018-04-17T12:27:23.111Z,33.00
2018-04-17T12:29:51.331Z,31.90
2018-04-17T12:32:18.814Z,31.90
2018-04-17T12:34:46.395Z,32.00
2018-04-17T12:37:13.902Z,31.80
2018-04-17T12:39:41.400Z,31.90
2018-04-17T12:42:09.070Z,32.10
2018-04-17T12:44:36.536Z,32.00
2018-04-17T12:47:03.974Z,32.60
2018-04-17T12:49:31.453Z,32.80
2018-04-17T12:51:59.676Z,32.50
2018-04-17T12:54:27.120Z,32.50
2018-04-17T12:56:54.583Z,32.10
2018-04-17T12:59:22.028Z,32.50
2018-04-17T13:01:49.505Z,31.50
2018-04-17T13:04:16.964Z,31.10
2018-04-17T13:06:44.431Z,31.20
2018-04-17T13:09:11.875Z,31.60
2018-04-17T13:11:39.336Z,31.20
2018-04-17T13:14:06.780Z,31.00
2018-04-17T13:16:34.231Z,30.60
2018-04-17T13:19:01.715Z,31.00
2018-04-17T13:21:29.170Z,31.50
2018-04-17T13:23:56.631Z,31.00
2018-04-17T13:26:24.078Z,31.20
2018-04-17T13:28:51.547Z,30.30
2018-04-17T13:31:19.035Z,30.50
2018-04-17T13:33:47.268Z,30.60
2018-04-17T13:36:15.058Z,30.50
2018-04-17T13:38:42.597Z,30.70
2018-04-17T13:41:10.067Z,30.40
2018-04-17T13:43:37.542Z,29.80
2018-04-17T13:46:05.833Z,29.00
2018-04-17T13:48:34.046Z,28.80
2018-04-17T13:51:01.502Z,28.80
2018-04-17T13:53:29.017Z,28.70
2018-04-17T13:55:57.281Z,28.40
2018-04-17T13:58:24.740Z,28.40
2018-04-17T14:00:52.193Z,28.10
2018-04-17T14:03:19.672Z,27.90
2018-04-17T14:05:47.938Z,28.30
2018-04-17T14:08:16.161Z,28.30
2018-04-17T14:10:43.635Z,28.30
2018-04-17T14:13:11.103Z,28.00
2018-04-17T14:15:39.396Z,28.10
2018-04-17T14:18:06.840Z,28.00
2018-04-17T14:20:34.368Z,27.70
2018-04-17T14:23:01.892Z,27.60
2018-04-17T14:25:29.435Z,27.50
2018-04-17T14:27:57.245Z,27.30
2018-04-17T14:30:25.591Z,27.40
2018-04-17T14:32:53.191Z,27.40
2018-04-17T14:35:20.723Z,27.20
2018-04-17T14:37:48.272Z,27.00
2018-04-17T14:40:15.854Z,27.00
2018-04-17T14:42:43.369Z,26.80
2018-04-17T14:45:11.663Z,27.00
2018-04-17T14:47:39.221Z,27.10
2018-04-17T14:50:06.762Z,26.90
2018-04-17T14:52:34.330Z,27.00
2018-04-17T14:55:01.848Z,26.80
2018-04-17T14:57:29.421Z,26.50
2018-04-17T14:59:57.733Z,26.30
2018-04-17T15:02:25.256Z,26.30
2018-04-17T15:04:52.807Z,26.40
2018-04-17T15:07:20.331Z,26.40
2018-04-17T15:09:48.470Z,26.50
2018-04-17T15:12:16.905Z,26.20
2018-04-17T15:14:44.576Z,26.20
2018-04-17T15:17:12.175Z,26.30
2018-04-17T15:19:39.773Z,26.20
2018-04-17T15:22:07.370Z,25.90
2018-04-17T15:24:34.940Z,26.10
2018-04-17T15:27:02.805Z,26.10
2018-04-17T15:29:30.494Z,26.00
2018-04-17T15:31:57.971Z,25.90
2018-04-17T15:34:25.873Z,25.80
2018-04-17T15:36:53.790Z,25.90
2018-04-17T15:39:21.755Z,26.10
2018-04-17T15:41:49.525Z,26.10
2018-04-17T15:44:17.016Z,26.10
2018-04-17T15:46:44.490Z,25.80
2018-04-17T15:49:11.971Z,25.80
2018-04-17T15:51:40.194Z,26.00
2018-04-17T15:54:07.670Z,26.00
2018-04-17T15:56:35.160Z,26.00
2018-04-17T15:59:03.369Z,26.00
2018-04-17T16:01:30.811Z,26.00
2018-04-17T16:03:58.310Z,25.80
2018-04-17T16:06:26.726Z,25.60
2018-04-17T16:08:54.159Z,25.60
2018-04-17T16:11:21.640Z,25.40
2018-04-17T16:13:49.869Z,25.20
2018-04-17T16:16:17.339Z,25.20
2018-04-17T16:18:44.820Z,25.30
2018-04-17T16:21:12.297Z,25.30
2018-04-17T16:23:40.551Z,25.30
2018-04-17T16:26:08.019Z,25.30
2018-04-17T16:28:36.266Z,25.30
2018-04-17T16:31:03.714Z,25.30
2018-04-17T16:33:31.183Z,25.30
2018-04-17T16:35:58.736Z,25.30
2018-04-17T16:38:26.311Z,25.30
2018-04-17T16:40:53.763Z,25.20
2018-04-17T16:43:21.975Z,25.40
2018-04-17T16:45:49.432Z,25.40
2018-04-17T16:48:16.875Z,25.40
2018-04-17T16:50:45.091Z,25.30
2018-04-17T16:53:12.535Z,25.30
2018-04-17T16:55:40.004Z,25.30
2018-04-17T16:58:07.511Z,25.10
2018-04-17T17:00:34.974Z,24.90
2018-04-17T17:03:03.190Z,24.90
2018-04-17T17:05:30.637Z,24.90
2018-04-17T17:07:58.093Z,24.80
2018-04-17T17:10:25.533Z,24.70
2018-04-17T17:12:52.975Z,24.60
2018-04-17T17:15:21.230Z,24.70
2018-04-17T17:17:48.689Z,24.60
2018-04-17T17:20:16.153Z,24.60
2018-04-17T17:22:43.628Z,24.60
2018-04-17T17:25:11.832Z,24.50
2018-04-17T17:27:39.284Z,24.50
2018-04-17T17:30:06.746Z,24.40
2018-04-17T17:32:34.207Z,24.50
2018-04-17T17:35:01.662Z,24.40
2018-04-17T17:37:29.111Z,24.30
2018-04-17T17:39:56.557Z,24.50
2018-04-17T17:42:24.024Z,24.30
2018-04-17T17:44:51.496Z,24.20
2018-04-17T17:47:19.693Z,24.20
2018-04-17T17:49:47.409Z,24.00
2018-04-17T17:52:14.867Z,24.00
2018-04-17T17:54:42.339Z,24.00
2018-04-17T17:57:09.790Z,24.00
2018-04-17T17:59:37.257Z,24.00
2018-04-17T18:02:04.771Z,23.90
2018-04-17T18:04:33.032Z,23.90
2018-04-17T18:07:00.521Z,23.80
2018-04-17T18:09:27.916Z,23.80
2018-04-17T18:11:55.371Z,23.70
2018-04-17T18:14:22.847Z,23.70
2018-04-17T18:16:50.339Z,23.60
2018-04-17T18:19:18.573Z,23.40
2018-04-17T18:21:46.029Z,23.40
2018-04-17T18:24:13.511Z,23.10
2018-04-17T18:26:41.740Z,22.90
2018-04-17T18:29:09.250Z,22.90
2018-04-17T18:31:36.731Z,22.80
2018-04-17T18:34:04.202Z,22.70
2018-04-17T18:36:31.637Z,22.60
2018-04-17T18:38:59.113Z,22.60
2018-04-17T18:41:26.568Z,22.60
2018-04-17T18:43:54.010Z,22.50
2018-04-17T18:46:21.623Z,22.40
2018-04-17T18:48:49.892Z,22.20
2018-04-17T18:51:17.632Z,22.20
2018-04-17T18:53:45.096Z,22.20
2018-04-17T18:56:12.770Z,22.10
2018-04-17T18:58:40.203Z,21.90
2018-04-17T19:01:07.881Z,21.80
2018-04-17T19:03:35.525Z,21.60
2018-04-17T19:06:02.985Z,21.60
2018-04-17T19:08:30.436Z,21.40
2018-04-17T19:10:58.040Z,21.40
2018-04-17T19:13:25.521Z,21.40
2018-04-17T19:15:53.763Z,21.20
2018-04-17T19:18:21.591Z,21.20
2018-04-17T19:20:49.133Z,21.10
2018-04-17T19:23:16.673Z,21.00
2018-04-17T19:25:44.166Z,20.90
2018-04-17T19:28:11.628Z,20.80
2018-04-17T19:30:39.093Z,20.80
2018-04-17T19:33:06.579Z,20.80
2018-04-17T19:35:34.023Z,20.70
2018-04-17T19:38:01.503Z,20.60
2018-04-17T19:40:29.068Z,20.60
2018-04-17T19:42:56.543Z,20.50
2018-04-17T19:45:24.799Z,20.40
2018-04-17T19:47:52.277Z,20.40
2018-04-17T19:50:20.487Z,20.50
2018-04-17T19:52:47.957Z,20.50
2018-04-17T19:55:15.525Z,20.30
2018-04-17T19:57:43.058Z,20.30
2018-04-17T20:00:10.528Z,20.20
2018-04-17T20:02:38.028Z,19.80
2018-04-17T20:05:05.454Z,19.80
2018-04-17T20:07:32.947Z,19.90
2018-04-17T20:10:01.930Z,19.60
2018-04-17T20:12:29.730Z,19.60
2018-04-17T20:14:57.386Z,19.60
2018-04-17T20:17:25.525Z,19.70
2018-04-17T20:19:53.426Z,19.70
2018-04-17T20:22:21.115Z,19.70
2018-04-17T20:24:48.902Z,19.40
2018-04-17T20:27:16.759Z,19.30
2018-04-17T20:29:44.461Z,19.30
2018-04-17T20:32:11.964Z,19.30
2018-04-17T20:34:39.426Z,19.30
2018-04-17T20:37:06.909Z,19.30
2018-04-17T20:39:34.385Z,19.30
2018-04-17T20:42:02.602Z,19.30
2018-04-17T20:44:30.055Z,19.30
2018-04-17T20:46:57.504Z,19.30
2018-04-17T20:49:24.983Z,19.20
2018-04-17T20:51:52.443Z,19.30
2018-04-17T20:54:19.922Z,19.20
2018-04-17T20:56:47.363Z,19.00
2018-04-17T20:59:14.847Z,18.80
2018-04-17T21:01:42.327Z,18.70
2018-04-17T21:04:10.564Z,18.50
2018-04-17T21:06:38.027Z,18.50
2018-04-17T21:09:06.341Z,18.50
2018-04-17T21:11:33.822Z,18.40
2018-04-17T21:14:01.272Z,18.50
2018-04-17T21:16:28.757Z,18.50
2018-04-17T21:18:56.194Z,18.40
2018-04-17T21:21:23.671Z,18.30
2018-04-17T21:23:51.158Z,18.20
2018-04-17T21:26:19.391Z,18.20
2018-04-17T21:28:46.830Z,18.20
2018-04-17T21:31:14.318Z,18.10
2018-04-17T21:33:41.801Z,18.10
2018-04-17T21:36:09.283Z,18.00
2018-04-17T21:38:36.733Z,18.10
2018-04-17T21:41:04.963Z,18.00
2018-04-17T21:43:32.398Z,18.00
2018-04-17T21:45:59.870Z,18.00
2018-04-17T21:48:27.341Z,17.90
2018-04-17T21:50:54.839Z,17.90
2018-04-17T21:53:22.279Z,17.80
2018-04-17T21:55:50.493Z,17.80
2018-04-17T21:58:17.958Z,17.80
2018-04-17T22:00:45.433Z,17.70
2018-04-17T22:03:12.904Z,17.60
2018-04-17T22:05:40.381Z,17.60
2018-04-17T22:08:08.601Z,17.60
2018-04-17T22:10:36.061Z,17.60
2018-04-17T22:13:04.428Z,17.50
2018-04-17T22:15:31.894Z,17.40
2018-04-17T22:17:59.401Z,17.30
2018-04-17T22:20:26.862Z,17.30
2018-04-17T22:22:54.288Z,17.20
2018-04-17T22:25:21.749Z,17.20
2018-04-17T22:27:49.218Z,17.10
2018-04-17T22:30:16.675Z,17.10
2018-04-17T22:32:44.149Z,17.10
2018-04-17T22:35:12.380Z,17.10
2018-04-17T22:37:39.853Z,17.00
2018-04-17T22:40:07.328Z,17.20
2018-04-17T22:42:34.780Z,17.10
2018-04-17T22:45:02.236Z,17.10
2018-04-17T22:47:29.680Z,17.00
2018-04-17T22:49:57.122Z,17.00
2018-04-17T22:52:24.605Z,17.10
2018-04-17T22:54:52.043Z,16.90
2018-04-17T22:57:19.490Z,16.80
2018-04-17T22:59:46.956Z,16.80
2018-04-17T23:02:14.428Z,16.70
2018-04-17T23:04:41.897Z,16.80
2018-04-17T23:07:09.378Z,16.70
2018-04-17T23:09:37.601Z,16.60
2018-04-17T23:12:05.068Z,16.50
2018-04-17T23:14:32.559Z,16.50
2018-04-17T23:16:59.982Z,16.40
2018-04-17T23:19:27.415Z,16.40
2018-04-17T23:21:54.890Z,16.40
2018-04-17T23:24:22.336Z,16.30
2018-04-17T23:26:49.830Z,16.30
2018-04-17T23:29:18.042Z,16.20
2018-04-17T23:31:45.510Z,16.10
2018-04-17T23:34:12.960Z,16.00
2018-04-17T23:36:40.402Z,15.80
2018-04-17T23:39:07.885Z,15.80
2018-04-17T23:41:35.329Z,15.80
2018-04-17T23:44:02.843Z,15.80
2018-04-17T23:46:30.277Z,15.70
2018-04-17T23:48:57.753Z,15.70
2018-04-17T23:51:25.199Z,15.60
2018-04-17T23:53:52.674Z,15.50
2018-04-17T23:56:20.896Z,15.60
2018-04-17T23:58:48.364Z,15.50
